Time;durP1;ratioP1;P1;durP2;ratioP2;P2;SDS_P1;SDS_P2;PMS_P1;PMS_P2;Temp;Humidity;BMP_temperature;BMP_pressure;BME280_temperature;BME280_humidity;BME280_pressure;Samples;Min_cycle;Max_cycle;Signal;HPM_P1;HPM_P2
2021/05/13 00:01:32;;;;;;;0.40;0.40;;;10.50;99.90;10.00;95739.00;;;;5068848;28;20212;-51
2021/05/13 00:04:20;;;;;;;0.87;0.40;;;10.50;99.90;10.00;95731.00;;;;5067447;28;20199;-52
2021/05/13 00:07:08;;;;;;;0.37;0.37;;;10.50;99.90;10.10;95725.00;;;;5053842;28;20212;-52
2021/05/13 00:09:58;;;;;;;0.40;0.40;;;10.50;99.90;10.10;95732.00;;;;5067935;28;20584;-53
2021/05/13 00:12:50;;;;;;;0.50;0.40;;;10.60;99.90;10.00;95726.00;;;;5066644;28;20232;-50
2021/05/13 00:15:42;;;;;;;0.30;0.30;;;10.50;99.90;10.10;95730.00;;;;5068002;28;20226;-53
2021/05/13 00:18:31;;;;;;;0.43;0.43;;;10.60;99.90;10.00;95725.00;;;;5068339;28;20212;-52
2021/05/13 00:21:20;;;;;;;0.23;0.23;;;10.50;99.90;10.00;95728.00;;;;5067826;28;20686;-50
2021/05/13 00:24:11;;;;;;;0.53;0.40;;;10.50;99.90;9.90;95726.00;;;;5065918;28;20224;-52
2021/05/13 00:27:02;;;;;;;1.17;0.53;;;10.60;99.90;10.00;95721.00;;;;5069636;28;20237;-52
2021/05/13 00:29:50;;;;;;;0.83;0.37;;;10.50;99.90;10.00;95723.00;;;;5067469;28;20219;-53
2021/05/13 00:32:40;;;;;;;0.40;0.40;;;10.50;99.90;10.00;95722.00;;;;5066938;28;20216;-52
2021/05/13 00:35:28;;;;;;;1.33;0.33;;;10.50;99.90;10.00;95723.00;;;;5054481;28;20208;-50
2021/05/13 00:38:16;;;;;;;0.40;0.40;;;10.50;99.90;10.00;95716.00;;;;5068206;28;20211;-53
2021/05/13 00:41:07;;;;;;;0.47;0.47;;;10.60;99.90;9.80;95711.00;;;;5066835;28;20215;-51
2021/05/13 00:43:57;;;;;;;1.47;0.60;;;10.50;99.90;9.90;95716.00;;;;5067522;28;20211;-50
2021/05/13 00:46:45;;;;;;;0.50;0.40;;;10.50;99.90;9.90;95715.00;;;;5067289;28;20215;-52
2021/05/13 00:49:33;;;;;;;0.30;0.30;;;10.40;99.90;10.00;95715.00;;;;5067723;28;20207;-50
2021/05/13 00:52:24;;;;;;;0.77;0.33;;;10.40;99.90;9.90;95704.00;;;;5067535;28;20227;-53
2021/05/13 00:55:15;;;;;;;0.30;0.30;;;10.50;99.90;10.00;95706.00;;;;5064944;28;20211;-52
2021/05/13 00:58:05;;;;;;;0.30;0.30;;;10.40;99.90;10.00;95701.00;;;;5067035;28;20302;-54
2021/05/13 01:01:05;;;;;;;0.80;0.30;;;10.50;99.90;9.80;95687.00;;;;5067892;28;20223;-51
2021/05/13 01:03:53;;;;;;;1.33;0.43;;;10.50;99.90;9.80;95705.00;;;;5055183;28;20208;-50
2021/05/13 01:06:41;;;;;;;0.30;0.30;;;10.40;99.90;9.90;95691.00;;;;5067129;28;20204;-52
2021/05/13 01:09:32;;;;;;;2.37;0.60;;;10.40;99.90;9.90;95694.00;;;;5067206;28;20207;-55
2021/05/13 01:12:21;;;;;;;0.40;0.30;;;10.40;99.90;9.80;95685.00;;;;5066290;28;20255;-51
2021/05/13 01:15:20;;;;;;;0.40;0.40;;;10.40;99.90;9.80;95683.00;;;;5067549;28;20203;-50
2021/05/13 01:18:16;;;;;;;0.30;0.30;;;10.40;99.90;9.80;95683.00;;;;5066151;28;20200;-51
2021/05/13 01:21:04;;;;;;;0.20;0.20;;;10.40;99.90;9.90;95682.00;;;;5066844;28;20218;-51
2021/05/13 01:23:53;;;;;;;1.43;0.83;;;10.40;99.90;9.90;95679.00;;;;5065843;28;20204;-50
2021/05/13 01:26:46;;;;;;;0.93;0.40;;;10.40;99.90;9.80;95677.00;;;;5067129;28;20211;-52
2021/05/13 01:29:35;;;;;;;0.40;0.30;;;10.40;99.90;9.80;95678.00;;;;5065403;28;20241;-51
2021/05/13 01:32:23;;;;;;;5.43;0.50;;;10.40;99.90;9.80;95670.00;;;;5064847;28;20227;-53
2021/05/13 01:35:12;;;;;;;1.80;0.50;;;10.30;99.90;9.80;95667.00;;;;5053839;28;20251;-54
2021/05/13 01:38:08;;;;;;;1.70;0.40;;;10.30;99.90;9.80;95668.00;;;;5055517;28;20655;-51
2021/05/13 01:41:00;;;;;;;0.67;0.27;;;10.30;99.90;9.80;95661.00;;;;5051733;28;20200;-52
2021/05/13 01:43:48;;;;;;;0.70;0.60;;;10.30;99.90;9.80;95652.00;;;;5066108;28;20215;-50
2021/05/13 01:46:38;;;;;;;0.37;0.37;;;10.40;99.90;9.80;95644.00;;;;5067063;28;20226;-53
2021/05/13 01:49:28;;;;;;;0.73;0.40;;;10.30;99.90;9.80;95642.00;;;;5055165;28;20215;-51
2021/05/13 01:52:16;;;;;;;2.03;0.67;;;10.70;99.90;9.80;95647.00;;;;5064344;28;20247;-49
2021/05/13 01:55:06;;;;;;;0.83;0.50;;;10.30;99.90;9.80;95642.00;;;;5064225;28;20235;-51
2021/05/13 01:57:55;;;;;;;0.50;0.47;;;10.30;99.90;9.70;95641.00;;;;5066723;28;20207;-52
2021/05/13 02:00:45;;;;;;;0.37;0.30;;;10.30;99.90;9.70;95636.00;;;;5065658;28;20203;-50
2021/05/13 02:03:34;;;;;;;0.87;0.30;;;10.30;99.90;9.70;95631.00;;;;5064321;28;20686;-51
2021/05/13 02:06:23;;;;;;;0.40;0.37;;;10.30;99.90;9.70;95643.00;;;;5065355;28;20203;-50
2021/05/13 02:09:11;;;;;;;0.30;0.30;;;10.20;99.90;9.70;95636.00;;;;5065210;28;20211;-52
2021/05/13 02:11:59;;;;;;;0.30;0.30;;;10.30;99.90;9.70;95625.00;;;;5064486;28;20233;-51
2021/05/13 02:14:49;;;;;;;0.60;0.60;;;10.20;99.90;9.60;95619.00;;;;5065524;28;20231;-49
2021/05/13 02:17:37;;;;;;;0.57;0.30;;;10.20;99.90;9.60;95615.00;;;;5062674;28;20208;-49
2021/05/13 02:20:26;;;;;;;3.30;0.47;;;10.20;99.90;9.70;95615.00;;;;5062053;28;20196;-54
2021/05/13 02:23:14;;;;;;;0.73;0.30;;;10.20;99.90;9.60;95608.00;;;;5063893;28;20750;-51
2021/05/13 02:26:02;;;;;;;0.30;0.30;;;10.20;99.90;9.60;95609.00;;;;5064972;28;20219;-51
2021/05/13 02:28:51;;;;;;;0.40;0.30;;;10.20;99.90;9.60;95608.00;;;;5064304;28;20859;-53
2021/05/13 02:31:40;;;;;;;0.93;0.40;;;10.10;99.90;9.60;95607.00;;;;5052639;28;20224;-53
2021/05/13 02:34:28;;;;;;;2.97;0.40;;;10.20;99.90;9.60;95605.00;;;;5056013;28;20231;-51
2021/05/13 02:37:19;;;;;;;0.30;0.20;;;10.10;99.90;9.60;95606.00;;;;5061847;28;20683;-52
2021/05/13 02:40:09;;;;;;;0.30;0.30;;;10.10;99.90;9.60;95610.00;;;;5066235;28;20216;-54
2021/05/13 02:42:59;;;;;;;0.50;0.27;;;10.10;99.90;9.50;95608.00;;;;5063686;28;20234;-50
2021/05/13 02:45:47;;;;;;;1.20;0.40;;;10.10;99.90;9.50;95598.00;;;;5064036;28;20824;-50
2021/05/13 02:48:36;;;;;;;1.20;0.90;;;10.10;99.90;9.60;95596.00;;;;5064878;28;20208;-51
2021/05/13 02:51:24;;;;;;;0.30;0.30;;;10.10;99.90;9.60;95598.00;;;;5064877;28;20226;-55
2021/05/13 02:54:13;;;;;;;0.53;0.40;;;10.10;99.90;9.50;95590.00;;;;5053367;28;20592;-49
2021/05/13 02:57:01;;;;;;;0.30;0.30;;;10.10;99.90;9.60;95591.00;;;;5065796;28;20219;-49
2021/05/13 02:59:53;;;;;;;0.33;0.30;;;10.10;99.90;9.60;95587.00;;;;5064424;28;20208;-50
2021/05/13 03:02:41;;;;;;;0.97;0.33;;;10.10;99.90;9.60;95583.00;;;;5063728;28;20792;-53
2021/05/13 03:05:30;;;;;;;2.10;0.40;;;10.10;99.90;9.50;95581.00;;;;5054272;28;20204;-52
2021/05/13 03:08:19;;;;;;;0.30;0.30;;;10.10;99.90;9.50;95594.00;;;;5068639;28;20215;-55
2021/05/13 03:11:07;;;;;;;0.50;0.40;;;10.10;99.90;9.50;95582.00;;;;5068220;28;20215;-50
2021/05/13 03:13:57;;;;;;;0.93;0.47;;;10.10;99.90;9.50;95591.00;;;;5068759;28;20222;-55
2021/05/13 03:16:45;;;;;;;0.70;0.43;;;10.00;99.90;9.50;95587.00;;;;5068867;28;20203;-53
2021/05/13 03:19:40;;;;;;;1.87;0.47;;;10.00;99.90;9.50;95583.00;;;;5068892;28;20212;-55
2021/05/13 03:22:29;;;;;;;0.90;0.50;;;10.00;99.90;9.50;95586.00;;;;5067333;28;20243;-54
2021/05/13 03:25:24;;;;;;;0.30;0.30;;;10.10;99.90;9.40;95584.00;;;;5067080;28;20219;-51
2021/05/13 03:28:13;;;;;;;0.30;0.30;;;10.00;99.90;9.50;95575.00;;;;5068743;28;20204;-53
2021/05/13 03:31:01;;;;;;;1.50;0.80;;;10.00;99.90;9.40;95572.00;;;;5069203;28;20207;-53
2021/05/13 03:33:49;;;;;;;0.60;0.50;;;10.00;99.90;9.40;95572.00;;;;5065449;28;20224;-55
2021/05/13 03:36:38;;;;;;;0.20;0.20;;;10.00;99.90;9.40;95572.00;;;;5060313;28;20208;-50
2021/05/13 03:39:27;;;;;;;0.40;0.40;;;9.90;99.90;9.30;95573.00;;;;5068006;28;20778;-50
2021/05/13 03:42:15;;;;;;;2.17;0.60;;;9.90;99.90;9.40;95572.00;;;;5067942;28;20231;-49
2021/05/13 03:45:05;;;;;;;0.63;0.50;;;10.00;99.90;9.40;95569.00;;;;5067291;28;20211;-52
2021/05/13 03:47:54;;;;;;;0.40;0.40;;;10.00;99.90;9.40;95568.00;;;;5069951;28;20670;-52
2021/05/13 03:50:42;;;;;;;0.40;0.40;;;10.00;99.90;9.30;95568.00;;;;5054429;28;20207;-51
2021/05/13 03:53:30;;;;;;;0.83;0.47;;;10.00;99.90;9.30;95561.00;;;;5068121;28;20219;-49
2021/05/13 03:56:20;;;;;;;0.33;0.33;;;9.90;99.90;9.30;95565.00;;;;5067401;28;20203;-50
2021/05/13 03:59:12;;;;;;;0.53;0.40;;;9.90;99.90;9.40;95562.00;;;;5057663;28;20211;-54
2021/05/13 04:02:08;;;;;;;2.60;0.50;;;9.90;99.90;9.40;95556.00;;;;5067762;28;20663;-53
2021/05/13 04:04:56;;;;;;;0.37;0.37;;;9.90;99.90;9.50;95569.00;;;;5068786;28;20203;-50
2021/05/13 04:07:47;;;;;;;1.13;0.37;;;9.90;99.90;9.40;95559.00;;;;5068205;28;20585;-49
2021/05/13 04:10:36;;;;;;;0.50;0.47;;;9.90;99.90;9.30;95558.00;;;;5070283;28;20199;-50
2021/05/13 04:13:26;;;;;;;0.77;0.60;;;9.90;99.90;9.40;95558.00;;;;5067562;28;20227;-53
2021/05/13 04:16:23;;;;;;;0.27;0.27;;;9.90;99.90;9.50;95553.00;;;;5067789;28;20204;-52
2021/05/13 04:19:11;;;;;;;0.20;0.20;;;9.90;99.90;9.50;95558.00;;;;5067502;28;20671;-53
2021/05/13 04:22:00;;;;;;;0.47;0.23;;;10.00;99.90;9.50;95555.00;;;;5068251;28;20220;-50
2021/05/13 04:24:48;;;;;;;1.23;0.43;;;10.00;99.90;9.40;95549.00;;;;5053994;28;20204;-53
2021/05/13 04:27:37;;;;;;;0.50;0.50;;;10.00;99.90;9.40;95546.00;;;;5068885;28;20702;-54
2021/05/13 04:30:26;;;;;;;0.53;0.53;;;9.90;99.90;9.30;95550.00;;;;5062110;28;20590;-52
2021/05/13 04:33:15;;;;;;;0.30;0.30;;;9.90;99.90;9.20;95549.00;;;;5065291;28;20227;-54
2021/05/13 04:36:04;;;;;;;0.30;0.30;;;9.90;99.90;9.30;95549.00;;;;5054434;28;20293;-53
2021/05/13 04:38:52;;;;;;;0.93;0.40;;;9.90;99.90;9.50;95543.00;;;;5052132;28;20222;-52
2021/05/13 04:41:40;;;;;;;2.20;0.40;;;9.90;99.90;9.40;95548.00;;;;5048861;28;20227;-51
2021/05/13 04:44:31;;;;;;;0.50;0.40;;;9.90;99.90;9.60;95543.00;;;;5056002;28;20207;-50
2021/05/13 04:47:25;;;;;;;2.70;0.50;;;10.00;99.90;9.50;95541.00;;;;5066688;28;20572;-48
2021/05/13 04:50:14;;;;;;;0.63;0.37;;;10.00;99.90;9.50;95546.00;;;;5065095;28;20220;-52
2021/05/13 04:53:07;;;;;;;1.03;0.40;;;10.00;99.90;9.60;95527.00;;;;5067547;28;20224;-51
2021/05/13 04:55:56;;;;;;;0.33;0.27;;;10.00;99.90;9.50;95539.00;;;;5045461;28;20243;-49
2021/05/13 04:58:44;;;;;;;0.60;0.50;;;10.00;99.90;9.60;95535.00;;;;5047973;28;20215;-50
2021/05/13 05:01:33;;;;;;;0.37;0.37;;;10.00;99.90;9.70;95530.00;;;;5064975;28;20211;-50
2021/05/13 05:04:22;;;;;;;0.30;0.30;;;10.10;99.90;9.60;95529.00;;;;5045894;28;20209;-53
2021/05/13 05:07:10;;;;;;;0.30;0.30;;;10.10;99.90;9.60;95519.00;;;;5050209;28;20193;-49
2021/05/13 05:09:59;;;;;;;1.53;0.37;;;10.20;99.90;9.70;95518.00;;;;5061161;28;20821;-52
2021/05/13 05:12:47;;;;;;;1.90;0.37;;;10.20;99.90;9.90;95519.00;;;;5059914;28;20227;-55
2021/05/13 05:15:35;;;;;;;0.40;0.40;;;10.00;99.90;9.90;95514.00;;;;5053639;28;20235;-48
2021/05/13 05:18:25;;;;;;;0.40;0.30;;;10.30;99.90;9.70;95507.00;;;;5060506;28;20220;-54
2021/05/13 05:21:14;;;;;;;0.47;0.47;;;10.30;99.90;9.80;95510.00;;;;5058778;28;20613;-54
2021/05/13 05:24:03;;;;;;;0.40;0.40;;;10.30;99.90;9.80;95509.00;;;;5058931;28;20292;-50
2021/05/13 05:26:51;;;;;;;0.30;0.30;;;10.30;99.90;10.00;95505.00;;;;5065924;28;20200;-53
2021/05/13 05:29:40;;;;;;;0.23;0.23;;;10.40;99.90;9.90;95507.00;;;;5067515;28;20576;-55
2021/05/13 05:32:28;;;;;;;0.80;0.37;;;10.40;99.90;9.90;95509.00;;;;5055659;28;20228;-52
2021/05/13 05:35:16;;;;;;;0.47;0.30;;;10.40;99.90;10.00;95505.00;;;;5044860;28;20231;-53
2021/05/13 05:38:07;;;;;;;0.20;0.20;;;10.50;99.90;10.20;95504.00;;;;5066050;28;20222;-55
2021/05/13 05:40:56;;;;;;;2.10;0.40;;;10.50;99.90;10.20;95501.00;;;;5065337;28;20218;-51
2021/05/13 05:43:44;;;;;;;1.77;1.33;;;10.60;99.90;10.20;95497.00;;;;5065154;28;20663;-52
2021/05/13 05:46:32;;;;;;;1.27;1.10;;;10.70;99.90;10.10;95498.00;;;;5061188;28;20205;-55
2021/05/13 05:49:21;;;;;;;2.63;0.87;;;10.70;99.90;10.10;95500.00;;;;5054739;28;20679;-53
2021/05/13 05:52:09;;;;;;;1.20;0.60;;;10.70;99.90;10.30;95495.00;;;;5064881;28;20223;-50
2021/05/13 05:54:58;;;;;;;0.43;0.43;;;10.70;99.90;10.10;95501.00;;;;5064660;28;20240;-53
2021/05/13 05:57:47;;;;;;;0.77;0.60;;;10.80;99.90;10.20;95494.00;;;;5065247;28;20450;-50
2021/05/13 06:00:35;;;;;;;0.50;0.50;;;10.80;99.90;10.30;95497.00;;;;5051776;28;20193;-55
2021/05/13 06:03:25;;;;;;;0.47;0.37;;;10.80;99.90;10.50;95502.00;;;;5062833;28;20582;-49
2021/05/13 06:06:13;;;;;;;0.83;0.50;;;10.80;99.90;10.40;95490.00;;;;5066829;28;20200;-52
2021/05/13 06:09:02;;;;;;;5.03;1.07;;;10.90;99.90;10.40;95495.00;;;;5066561;28;20266;-52
2021/05/13 06:11:51;;;;;;;3.93;2.17;;;10.90;99.90;10.50;95489.00;;;;5065826;28;20243;-51
2021/05/13 06:14:39;;;;;;;3.77;2.10;;;11.00;99.90;10.60;95493.00;;;;5066201;28;20226;-51
2021/05/13 06:17:28;;;;;;;0.70;0.70;;;11.00;99.90;10.50;95498.00;;;;5065497;28;20226;-53
2021/05/13 06:20:21;;;;;;;1.07;0.40;;;11.10;99.90;10.50;95496.00;;;;5065426;28;20208;-54
2021/05/13 06:23:09;;;;;;;0.43;0.40;;;11.00;99.90;10.70;95496.00;;;;5065810;28;20596;-50
2021/05/13 06:25:58;;;;;;;0.50;0.50;;;11.10;99.90;10.80;95492.00;;;;5067481;28;20219;-51
2021/05/13 06:28:47;;;;;;;0.40;0.40;;;11.10;99.90;10.70;95484.00;;;;5064191;28;20214;-55
2021/05/13 06:31:36;;;;;;;2.77;1.10;;;11.20;99.90;10.80;95492.00;;;;5060933;28;20730;-54
2021/05/13 06:34:25;;;;;;;3.50;1.90;;;11.20;99.90;10.70;95482.00;;;;5055713;28;20231;-52
2021/05/13 06:37:13;;;;;;;0.70;0.70;;;11.20;99.90;10.70;95485.00;;;;5056571;28;20200;-54
2021/05/13 06:40:01;;;;;;;0.87;0.83;;;11.20;99.90;10.90;95487.00;;;;5062588;28;20588;-51
2021/05/13 06:42:49;;;;;;;0.90;0.80;;;11.30;99.90;11.10;95491.00;;;;5052632;28;20235;-50
2021/05/13 06:45:38;;;;;;;0.53;0.50;;;11.40;99.90;11.20;95496.00;;;;5064737;28;20220;-55
2021/05/13 06:48:27;;;;;;;0.70;0.70;;;11.50;99.90;11.50;95494.00;;;;5065229;28;20215;-53
2021/05/13 06:51:15;;;;;;;0.40;0.40;;;11.60;99.90;11.40;95499.00;;;;5065781;28;20200;-52
2021/05/13 06:54:05;;;;;;;0.97;0.77;;;11.70;99.90;11.60;95489.00;;;;5053384;28;20595;-53
2021/05/13 06:56:53;;;;;;;0.93;0.50;;;11.80;99.90;11.50;95485.00;;;;5067444;28;20212;-54
2021/05/13 06:59:42;;;;;;;1.13;0.53;;;11.90;99.90;11.70;95485.00;;;;5065139;28;20223;-54
2021/05/13 07:02:32;;;;;;;2.43;0.80;;;12.00;99.90;11.80;95488.00;;;;5058010;28;20212;-50
2021/05/13 07:05:20;;;;;;;0.63;0.60;;;12.10;99.90;11.80;95491.00;;;;5065293;28;20204;-51
2021/05/13 07:08:09;;;;;;;0.63;0.53;;;12.10;99.90;12.00;95490.00;;;;5066019;28;20208;-55
2021/05/13 07:10:58;;;;;;;2.50;0.50;;;12.20;99.90;11.70;95491.00;;;;5056629;28;20207;-53
2021/05/13 07:13:47;;;;;;;0.50;0.47;;;12.20;99.90;11.70;95484.00;;;;5064093;28;20204;-52
2021/05/13 07:16:35;;;;;;;0.80;0.57;;;12.20;99.90;11.90;95489.00;;;;5062401;28;20683;-51
2021/05/13 07:19:24;;;;;;;1.30;0.30;;;12.60;99.90;11.70;95484.00;;;;5053513;28;20266;-52
2021/05/13 07:22:13;;;;;;;0.70;0.40;;;12.30;99.90;12.00;95489.00;;;;5064422;28;20224;-54
2021/05/13 07:25:01;;;;;;;0.60;0.30;;;12.30;99.90;11.60;95482.00;;;;5064612;28;20203;-51
2021/05/13 07:27:49;;;;;;;0.30;0.30;;;12.30;99.90;11.70;95476.00;;;;5065542;28;20578;-54
2021/05/13 07:30:38;;;;;;;0.50;0.43;;;12.30;99.90;12.00;95480.00;;;;5065180;28;20204;-53
2021/05/13 07:33:27;;;;;;;0.33;0.33;;;12.30;99.90;12.30;95474.00;;;;5064141;28;20220;-52
2021/05/13 07:36:16;;;;;;;2.60;0.53;;;12.40;99.90;12.40;95479.00;;;;5053830;28;20235;-52
2021/05/13 07:39:06;;;;;;;1.07;0.30;;;12.50;99.90;12.60;95484.00;;;;5045411;28;20197;-53
2021/05/13 07:41:55;;;;;;;0.30;0.30;;;12.60;99.90;12.70;95477.00;;;;5055590;28;20228;-50
2021/05/13 07:44:43;;;;;;;0.30;0.30;;;12.80;99.90;12.50;95469.00;;;;5052559;28;20207;-50
2021/05/13 07:47:37;;;;;;;0.57;0.30;;;12.90;99.90;12.60;95475.00;;;;5065123;28;20200;-50
2021/05/13 07:50:26;;;;;;;0.30;0.20;;;12.90;99.90;12.40;95474.00;;;;5052109;28;20561;-50
2021/05/13 07:53:15;;;;;;;0.40;0.30;;;13.00;99.90;12.60;95481.00;;;;5064190;28;20219;-49
2021/05/13 07:56:04;;;;;;;0.20;0.20;;;13.00;99.90;12.30;95468.00;;;;5066175;28;20232;-50
2021/05/13 07:58:53;;;;;;;0.40;0.30;;;12.90;99.90;12.30;95482.00;;;;5061902;28;20219;-53
2021/05/13 08:01:41;;;;;;;0.20;0.13;;;12.90;99.90;12.50;95474.00;;;;5066597;28;20709;-50
2021/05/13 08:04:29;;;;;;;0.20;0.20;;;12.90;99.90;12.70;95489.00;;;;5063182;28;20666;-49
2021/05/13 08:07:21;;;;;;;0.60;0.60;;;13.00;99.90;12.90;95483.00;;;;5069511;28;20216;-52
2021/05/13 08:10:12;;;;;;;0.63;0.50;;;13.10;99.90;13.00;95483.00;;;;5066973;28;20214;-50
2021/05/13 08:13:00;;;;;;;0.93;0.43;;;13.20;99.90;13.10;95484.00;;;;5060926;28;20622;-51
2021/05/13 08:15:49;;;;;;;0.40;0.40;;;13.20;99.90;13.20;95479.00;;;;5061779;28;20242;-50
2021/05/13 08:18:37;;;;;;;0.53;0.40;;;13.30;99.90;13.30;95478.00;;;;5067745;28;20218;-50
2021/05/13 08:21:26;;;;;;;0.83;0.30;;;13.40;99.90;13.50;95495.00;;;;5067734;28;20703;-53
2021/05/13 08:24:14;;;;;;;0.30;0.20;;;13.50;99.90;13.70;95491.00;;;;5068040;28;20196;-49
2021/05/13 08:27:03;;;;;;;0.50;0.30;;;13.60;99.90;13.80;95488.00;;;;5068035;28;20210;-52
2021/05/13 08:29:52;;;;;;;0.20;0.20;;;13.80;99.90;14.10;95494.00;;;;5053585;28;20611;-52
2021/05/13 08:32:40;;;;;;;0.33;0.20;;;13.90;99.90;14.10;95483.00;;;;5067533;28;20601;-52
2021/05/13 08:35:28;;;;;;;0.20;0.10;;;14.10;99.90;14.00;95483.00;;;;5062769;28;20239;-52
2021/05/13 08:38:17;;;;;;;0.37;0.20;;;14.20;99.90;13.70;95488.00;;;;5057717;28;20714;-49
2021/05/13 08:41:05;;;;;;;0.20;0.13;;;14.10;99.90;14.00;95494.00;;;;5060716;28;20212;-50
2021/05/13 08:43:55;;;;;;;0.47;0.10;;;14.10;99.90;13.90;95483.00;;;;5058671;28;20204;-52
2021/05/13 08:46:43;;;;;;;0.20;0.20;;;14.20;99.90;13.60;95485.00;;;;5060423;28;20207;-49
2021/05/13 08:49:31;;;;;;;0.20;0.10;;;14.10;99.90;13.30;95491.00;;;;5057684;28;20199;-49
2021/05/13 08:52:21;;;;;;;0.20;0.20;;;14.00;99.90;13.50;95478.00;;;;5055418;28;20228;-50
2021/05/13 08:55:11;;;;;;;0.20;0.10;;;13.80;99.90;13.90;95477.00;;;;5051404;28;20573;-50
2021/05/13 08:57:59;;;;;;;0.30;0.20;;;13.90;99.90;13.80;95477.00;;;;5060464;28;20785;-51
2021/05/13 09:00:52;;;;;;;0.20;0.10;;;13.90;99.90;13.80;95471.00;;;;5062446;28;20196;-50
2021/05/13 09:03:41;;;;;;;0.27;0.27;;;13.90;99.90;14.20;95476.00;;;;5066331;28;20212;-51
2021/05/13 09:06:33;;;;;;;0.20;0.10;;;14.00;99.90;14.30;95480.00;;;;5059361;28;20208;-53
2021/05/13 09:09:21;;;;;;;0.20;0.10;;;14.20;99.90;14.70;95488.00;;;;5067989;28;20204;-49
2021/05/13 09:12:10;;;;;;;0.30;0.30;;;14.40;99.90;14.80;95491.00;;;;5068187;28;20234;-51
2021/05/13 09:15:02;;;;;;;0.20;0.20;;;14.60;99.90;15.00;95497.00;;;;5068752;28;20869;-52
2021/05/13 09:18:03;;;;;;;0.30;0.23;;;14.80;99.90;15.20;95487.00;;;;5067643;28;20219;-52
2021/05/13 09:20:51;;;;;;;0.20;0.10;;;15.00;99.90;15.40;95483.00;;;;5066718;28;20193;-50
2021/05/13 09:23:39;;;;;;;1.03;0.30;;;15.30;99.90;15.70;95481.00;;;;5061795;28;20231;-51
2021/05/13 09:26:29;;;;;;;0.30;0.20;;;15.50;99.90;15.70;95486.00;;;;5062240;28;20588;-51
2021/05/13 09:29:19;;;;;;;0.20;0.10;;;15.70;99.90;15.60;95495.00;;;;5060182;28;20196;-50
2021/05/13 09:32:19;;;;;;;0.20;0.20;;;15.80;99.90;15.70;95487.00;;;;5062335;28;20212;-52
2021/05/13 09:35:12;;;;;;;0.20;0.20;;;15.80;99.90;15.80;95481.00;;;;5060989;28;20921;-55
2021/05/13 09:38:03;;;;;;;0.30;0.20;;;16.20;99.90;15.60;95497.00;;;;5060585;28;20204;-51
2021/05/13 09:40:52;;;;;;;0.20;0.10;;;16.00;99.90;15.70;95482.00;;;;5068670;28;20204;-52
2021/05/13 09:43:41;;;;;;;0.80;0.10;;;16.00;99.90;15.90;95480.00;;;;5061981;28;20207;-51
2021/05/13 09:46:35;;;;;;;0.20;0.17;;;16.00;99.90;16.20;95474.00;;;;5067780;28;20211;-50
2021/05/13 09:49:23;;;;;;;0.20;0.20;;;16.10;99.90;16.20;95474.00;;;;5066378;28;20200;-51
2021/05/13 09:52:51;;;;;;;0.30;0.10;;;16.20;99.90;16.30;95478.00;;;;5055957;28;20254;-49
2021/05/13 09:55:39;;;;;;;0.50;0.20;;;16.30;99.90;16.20;95482.00;;;;5030836;28;20199;-50
2021/05/13 09:58:27;;;;;;;0.20;0.20;;;16.40;99.90;16.30;95476.00;;;;5058382;28;20196;-51
2021/05/13 10:01:16;;;;;;;0.30;0.13;;;16.40;99.90;16.30;95474.00;;;;5065051;28;20679;-51
2021/05/13 10:04:06;;;;;;;0.67;0.20;;;16.40;99.90;16.40;95470.00;;;;5060786;28;20211;-51
2021/05/13 10:06:55;;;;;;;0.40;0.40;;;16.50;99.90;16.50;95468.00;;;;5057313;28;20592;-49
2021/05/13 10:09:46;;;;;;;0.20;0.10;;;16.50;99.90;16.50;95469.00;;;;5067770;28;20223;-50
2021/05/13 10:12:47;;;;;;;0.20;0.13;;;16.60;99.90;16.40;95466.00;;;;5066676;28;20212;-49
2021/05/13 10:15:39;;;;;;;0.20;0.20;;;16.60;99.90;16.70;95477.00;;;;5065450;28;20200;-49
2021/05/13 10:18:35;;;;;;;1.63;0.20;;;16.60;99.90;16.60;95474.00;;;;5064988;28;20203;-52
2021/05/13 10:21:27;;;;;;;0.53;0.23;;;16.70;99.90;16.80;95475.00;;;;5059789;28;20207;-51
2021/05/13 10:24:15;;;;;;;0.20;0.10;;;16.80;99.90;16.90;95469.00;;;;5061592;28;20200;-52
2021/05/13 10:27:17;;;;;;;0.20;0.20;;;16.90;99.90;17.30;95472.00;;;;5060099;28;20223;-51
2021/05/13 10:30:10;;;;;;;0.20;0.10;;;17.10;99.90;17.40;95474.00;;;;5065892;28;20210;-51
2021/05/13 10:33:18;;;;;;;0.20;0.20;;;17.20;99.90;17.30;95471.00;;;;5065431;28;20220;-50
2021/05/13 10:36:09;;;;;;;0.50;0.50;;;17.40;99.90;17.30;95472.00;;;;5054634;28;20221;-49
2021/05/13 10:39:08;;;;;;;0.37;0.20;;;17.50;99.90;17.20;95470.00;;;;5052391;28;20891;-50
2021/05/13 10:41:56;;;;;;;0.63;0.40;;;17.50;99.90;17.30;95473.00;;;;5062959;28;20227;-51
2021/05/13 10:44:45;;;;;;;0.50;0.30;;;17.50;99.90;17.50;95477.00;;;;5056278;28;20212;-52
2021/05/13 10:47:33;;;;;;;0.97;0.23;;;17.50;99.90;17.30;95473.00;;;;5065567;28;20413;-49
2021/05/13 10:50:41;;;;;;;0.37;0.30;;;17.50;99.90;17.20;95480.00;;;;5062344;28;20192;-51
2021/05/13 10:53:45;;;;;;;0.20;0.10;;;17.40;97.60;17.10;95476.00;;;;5059445;28;20220;-55
2021/05/13 10:56:36;;;;;;;0.30;0.27;;;17.30;96.50;17.30;95475.00;;;;5064699;28;20222;-52
2021/05/13 10:59:24;;;;;;;0.23;0.10;;;17.40;97.40;17.10;95475.00;;;;5063943;28;21031;-51
2021/05/13 11:02:37;;;;;;;0.30;0.20;;;17.40;97.80;17.00;95461.00;;;;5057911;28;20598;-53
2021/05/13 11:05:43;;;;;;;0.97;0.20;;;17.30;93.90;16.90;95466.00;;;;5052746;28;20201;-53
2021/05/13 11:08:47;;;;;;;0.30;0.10;;;17.20;91.30;16.80;95465.00;;;;5060254;28;20211;-51
2021/05/13 11:12:10;;;;;;;0.30;0.20;;;17.10;90.30;16.90;95470.00;;;;5066804;28;20231;-52
2021/05/13 11:15:21;;;;;;;0.20;0.10;;;17.10;87.80;16.80;95463.00;;;;5064623;28;20708;-52
2021/05/13 11:18:15;;;;;;;0.20;0.10;;;17.00;84.90;17.00;95468.00;;;;5067089;28;20208;-54
2021/05/13 11:21:03;;;;;;;0.20;0.20;;;17.10;88.30;16.80;95470.00;;;;5065160;28;20218;-54
2021/05/13 11:23:52;;;;;;;0.20;0.17;;;17.10;87.20;16.80;95469.00;;;;5065870;28;20706;-52
2021/05/13 11:26:40;;;;;;;0.20;0.10;;;17.00;82.80;16.80;95471.00;;;;5067683;28;20548;-53
2021/05/13 11:29:40;;;;;;;0.20;0.10;;;17.10;84.70;16.90;95473.00;;;;5056928;28;20695;-52
2021/05/13 11:32:28;;;;;;;0.43;0.20;;;17.00;82.70;16.60;95461.00;;;;5068268;28;20951;-53
2021/05/13 11:35:19;;;;;;;0.20;0.10;;;17.00;80.80;16.80;95470.00;;;;5064091;28;20224;-54
2021/05/13 11:38:20;;;;;;;0.60;0.10;;;17.00;81.20;16.80;95479.00;;;;5064388;28;20224;-55
2021/05/13 11:41:09;;;;;;;0.77;0.20;;;17.00;82.50;16.80;95476.00;;;;5068913;28;20204;-51
2021/05/13 11:43:58;;;;;;;0.20;0.10;;;17.10;81.00;16.90;95472.00;;;;5069167;28;20207;-53
2021/05/13 11:46:46;;;;;;;0.30;0.17;;;17.10;79.40;17.00;95474.00;;;;5069480;28;20212;-52
2021/05/13 11:49:36;;;;;;;0.20;0.10;;;17.10;81.60;16.80;95482.00;;;;5069515;28;20211;-50
2021/05/13 11:52:25;;;;;;;0.77;0.10;;;17.10;81.60;16.10;95482.00;;;;5068165;28;20294;-53
2021/05/13 11:55:31;;;;;;;0.30;0.10;;;17.00;74.60;16.60;95478.00;;;;5069570;28;20196;-50
2021/05/13 11:58:43;;;;;;;0.20;0.10;;;16.90;80.50;16.60;95491.00;;;;5057901;28;20239;-54
2021/05/13 12:01:34;;;;;;;0.20;0.10;;;16.90;80.40;16.50;95487.00;;;;5068707;28;20207;-53
2021/05/13 12:04:24;;;;;;;0.20;0.10;;;16.90;79.50;16.60;95483.00;;;;5065124;28;20212;-55
2021/05/13 12:07:16;;;;;;;0.20;0.10;;;16.90;81.50;16.70;95489.00;;;;5068094;28;20210;-50
2021/05/13 12:10:07;;;;;;;0.43;0.43;;;16.90;80.80;16.80;95486.00;;;;5068177;28;20211;-49
2021/05/13 12:13:03;;;;;;;0.50;0.10;;;16.90;83.50;16.70;95491.00;;;;5056426;28;20230;-55
2021/05/13 12:16:02;;;;;;;0.20;0.20;;;17.00;83.70;16.60;95493.00;;;;5068375;28;20234;-51
2021/05/13 12:18:53;;;;;;;0.30;0.10;;;16.90;82.20;16.20;95497.00;;;;5068312;28;20261;-53
2021/05/13 12:21:43;;;;;;;0.20;0.10;;;16.80;74.70;15.60;95492.00;;;;5067883;28;20735;-49
2021/05/13 12:24:34;;;;;;;0.20;0.10;;;16.60;71.40;15.80;95491.00;;;;5056819;28;20211;-54
2021/05/13 12:27:23;;;;;;;0.20;0.17;;;16.50;75.00;15.70;95488.00;;;;5068930;28;20204;-53
2021/05/13 12:30:14;;;;;;;0.20;0.20;;;16.40;72.70;16.20;95500.00;;;;5068410;28;20200;-54
2021/05/13 12:33:21;;;;;;;0.40;0.20;;;16.30;75.40;16.40;95509.00;;;;5067908;28;20234;-49
2021/05/13 12:36:12;;;;;;;0.73;0.20;;;16.40;81.00;16.50;95499.00;;;;5055846;28;20205;-52
2021/05/13 12:39:00;;;;;;;0.20;0.20;;;16.50;83.00;16.40;95500.00;;;;5054376;28;20854;-54
2021/05/13 12:41:49;;;;;;;0.20;0.10;;;16.60;79.40;16.50;95495.00;;;;5067676;28;20224;-53